Time;durP1;ratioP1;P1;durP2;ratioP2;P2;SDS_P1;SDS_P2;PMS_P1;PMS_P2;Temp;Humidity;BMP_temperature;BMP_pressure;BME280_temperature;BME280_humidity;BME280_pressure;Samples;Min_cycle;Max_cycle;Signal;HPM_P1;HPM_P2
2023/03/10 00:02:20;;;;;;;3.23;1.60;;;;;;;;;;5047427;28;20249;-73
2023/03/10 00:04:52;;;;;;;3.77;1.40;;;;;;;;;;5047804;28;20173;-73
2023/03/10 00:07:19;;;;;;;3.60;1.47;;;;;;;;;;5048781;28;20182;-73
2023/03/10 00:09:45;;;;;;;1.57;1.20;;;;;;;;;;5041425;28;20209;-73
2023/03/10 00:12:11;;;;;;;3.73;1.30;;;;;;;;;;5051882;28;20189;-73
2023/03/10 00:14:38;;;;;;;2.60;1.40;;;;;;;;;;5048949;28;20605;-73
2023/03/10 00:17:04;;;;;;;2.60;1.43;;;;;;;;;;5048995;28;20185;-73
2023/03/10 00:19:30;;;;;;;2.40;1.13;;;;;;;;;;5047832;28;20561;-73
2023/03/10 00:21:56;;;;;;;3.87;1.57;;;;;;;;;;5049136;28;20178;-73
2023/03/10 00:24:22;;;;;;;2.63;1.17;;;;;;;;;;5047775;28;20205;-72
2023/03/10 00:26:49;;;;;;;3.17;1.20;;;;;;;;;;5048343;28;20186;-73
2023/03/10 00:29:16;;;;;;;3.07;1.33;;;;;;;;;;5049147;28;20276;-73
2023/03/10 00:31:42;;;;;;;4.43;1.60;;;;;;;;;;5045832;28;20194;-73
2023/03/10 00:34:08;;;;;;;3.53;1.40;;;;;;;;;;5045825;28;20296;-72
2023/03/10 00:36:34;;;;;;;2.13;1.30;;;;;;;;;;5048290;28;20743;-73
2023/03/10 00:39:00;;;;;;;3.53;1.60;;;;;;;;;;5050080;28;20253;-73
2023/03/10 00:41:31;;;;;;;1.70;1.30;;;;;;;;;;5048353;28;20199;-73
2023/03/10 00:43:57;;;;;;;1.90;1.27;;;;;;;;;;5047700;28;20198;-73
2023/03/10 00:46:24;;;;;;;2.30;1.30;;;;;;;;;;5048945;28;20182;-72
2023/03/10 00:48:51;;;;;;;2.37;1.10;;;;;;;;;;5045138;28;20641;-73
2023/03/10 00:51:17;;;;;;;3.60;1.40;;;;;;;;;;5046903;28;20284;-73
2023/03/10 00:53:44;;;;;;;1.50;1.00;;;;;;;;;;5044412;28;20190;-73
2023/03/10 00:56:12;;;;;;;2.90;1.10;;;;;;;;;;5049130;28;20261;-73
2023/03/10 00:58:38;;;;;;;1.43;0.90;;;;;;;;;;5051765;28;20184;-72
2023/03/10 01:01:05;;;;;;;2.13;1.20;;;;;;;;;;5047840;28;20213;-73
2023/03/10 01:03:31;;;;;;;2.43;1.00;;;;;;;;;;5044986;28;20301;-73
2023/03/10 01:05:58;;;;;;;2.00;1.00;;;;;;;;;;5044423;28;20280;-73
2023/03/10 01:08:24;;;;;;;1.57;1.10;;;;;;;;;;5045858;28;20174;-72
2023/03/10 01:10:50;;;;;;;1.00;0.90;;;;;;;;;;5043613;28;20622;-72
2023/03/10 01:13:17;;;;;;;1.80;1.00;;;;;;;;;;5039306;28;20263;-73
2023/03/10 01:15:43;;;;;;;2.47;1.20;;;;;;;;;;5046025;28;20198;-72
2023/03/10 01:18:10;;;;;;;3.20;1.10;;;;;;;;;;5045463;28;20242;-72
2023/03/10 01:20:36;;;;;;;2.23;0.93;;;;;;;;;;5045238;28;20209;-72
2023/03/10 01:23:04;;;;;;;1.30;0.97;;;;;;;;;;5045719;28;20218;-72
2023/03/10 01:25:30;;;;;;;1.90;1.00;;;;;;;;;;5046843;28;20186;-73
2023/03/10 01:27:56;;;;;;;2.37;0.90;;;;;;;;;;5043853;28;20214;-73
2023/03/10 01:30:23;;;;;;;1.73;0.97;;;;;;;;;;5025418;28;20200;-73
2023/03/10 01:32:50;;;;;;;2.83;1.10;;;;;;;;;;5042633;28;20297;-73
2023/03/10 01:35:16;;;;;;;1.93;1.00;;;;;;;;;;5043352;28;20826;-72
2023/03/10 01:37:42;;;;;;;1.23;1.07;;;;;;;;;;5047879;28;20187;-72
2023/03/10 01:40:15;;;;;;;1.20;1.00;;;;;;;;;;5046364;28;20232;-73
2023/03/10 01:42:42;;;;;;;2.27;1.00;;;;;;;;;;5046687;28;20649;-73
2023/03/10 01:45:14;;;;;;;2.40;1.07;;;;;;;;;;5045987;28;20590;-73
2023/03/10 01:47:41;;;;;;;2.43;0.90;;;;;;;;;;5041450;28;20228;-73
2023/03/10 01:50:13;;;;;;;3.23;1.00;;;;;;;;;;5028808;28;20181;-73
2023/03/10 01:52:40;;;;;;;2.97;1.43;;;;;;;;;;5058665;28;20224;-73
2023/03/10 01:55:16;;;;;;;1.17;0.90;;;;;;;;;;5060010;28;20182;-73
2023/03/10 01:58:01;;;;;;;2.53;1.13;;;;;;;;;;5042088;28;20554;-72
2023/03/10 02:00:28;;;;;;;1.50;0.90;;;;;;;;;;5041537;28;20213;-73
2023/03/10 02:03:06;;;;;;;1.83;0.80;;;;;;;;;;5039960;28;20235;-72
2023/03/10 02:05:34;;;;;;;2.63;1.80;;;;;;;;;;5026973;28;20209;-72
2023/03/10 02:08:00;;;;;;;3.43;1.20;;;;;;;;;;5024448;28;20248;-73
2023/03/10 02:10:26;;;;;;;1.83;1.40;;;;;;;;;;5042438;28;20265;-72
2023/03/10 02:12:53;;;;;;;0.93;0.87;;;;;;;;;;5040026;28;20193;-72
2023/03/10 02:15:19;;;;;;;3.17;1.10;;;;;;;;;;5027169;28;20662;-72
2023/03/10 02:17:46;;;;;;;2.63;1.20;;;;;;;;;;5047001;28;20243;-73
2023/03/10 02:20:21;;;;;;;3.17;1.33;;;;;;;;;;5040708;28;20237;-73
2023/03/10 02:22:48;;;;;;;2.30;1.30;;;;;;;;;;5041179;28;20259;-72
2023/03/10 02:25:14;;;;;;;2.73;1.00;;;;;;;;;;5048447;28;20189;-73
2023/03/10 02:27:40;;;;;;;2.87;1.20;;;;;;;;;;5046587;28;20173;-73
2023/03/10 02:30:07;;;;;;;2.50;0.90;;;;;;;;;;5044682;28;20192;-72
2023/03/10 02:32:37;;;;;;;2.00;1.00;;;;;;;;;;5047441;28;20206;-72
2023/03/10 02:35:05;;;;;;;2.00;1.10;;;;;;;;;;5040925;28;20205;-73
2023/03/10 02:37:34;;;;;;;1.27;1.00;;;;;;;;;;5046826;28;20711;-72
2023/03/10 02:40:01;;;;;;;2.90;1.00;;;;;;;;;;5040140;28;20264;-72
2023/03/10 02:42:30;;;;;;;2.47;1.20;;;;;;;;;;5048449;28;20202;-71
2023/03/10 02:44:57;;;;;;;1.33;0.97;;;;;;;;;;5046384;28;20182;-72
2023/03/10 02:47:23;;;;;;;1.80;1.00;;;;;;;;;;5048557;28;20231;-72
2023/03/10 02:49:49;;;;;;;1.83;1.17;;;;;;;;;;5048845;28;20178;-72
2023/03/10 02:52:35;;;;;;;2.93;1.20;;;;;;;;;;5032104;28;20214;-72
2023/03/10 02:55:02;;;;;;;1.87;1.10;;;;;;;;;;5028607;28;20292;-72
2023/03/10 02:57:28;;;;;;;1.93;1.13;;;;;;;;;;5044850;28;20529;-72
2023/03/10 02:59:54;;;;;;;1.67;1.13;;;;;;;;;;5048238;28;20221;-72
2023/03/10 03:02:20;;;;;;;4.23;1.60;;;;;;;;;;5049442;28;20231;-72
2023/03/10 03:04:46;;;;;;;1.97;1.20;;;;;;;;;;5050796;28;20196;-73
2023/03/10 03:07:13;;;;;;;1.93;1.13;;;;;;;;;;5063814;28;20178;-72
2023/03/10 03:09:39;;;;;;;1.77;1.30;;;;;;;;;;5058087;28;20262;-72
2023/03/10 03:12:05;;;;;;;3.90;1.20;;;;;;;;;;5060758;28;20197;-72
2023/03/10 03:14:31;;;;;;;2.03;1.40;;;;;;;;;;5051734;28;20264;-73
2023/03/10 03:16:57;;;;;;;1.80;1.20;;;;;;;;;;5031857;28;20216;-72
2023/03/10 03:19:23;;;;;;;3.30;1.30;;;;;;;;;;5046755;28;20347;-73
2023/03/10 03:21:50;;;;;;;3.40;1.40;;;;;;;;;;5042962;28;20212;-72
2023/03/10 03:24:19;;;;;;;3.77;1.30;;;;;;;;;;5046710;28;20209;-73
2023/03/10 03:26:46;;;;;;;2.20;1.40;;;;;;;;;;5045833;28;20187;-73
2023/03/10 03:29:16;;;;;;;3.87;1.50;;;;;;;;;;5048296;28;20810;-72
2023/03/10 03:31:43;;;;;;;2.53;1.30;;;;;;;;;;5047182;28;20190;-71
2023/03/10 03:34:14;;;;;;;1.50;1.40;;;;;;;;;;5046354;28;20620;-72
2023/03/10 03:36:41;;;;;;;1.77;1.30;;;;;;;;;;5048666;28;20185;-72
2023/03/10 03:39:10;;;;;;;3.73;1.30;;;;;;;;;;5047077;28;20229;-72
2023/03/10 03:41:38;;;;;;;4.00;1.37;;;;;;;;;;5046680;28;20814;-73
2023/03/10 03:44:05;;;;;;;2.53;1.23;;;;;;;;;;5047168;28;20690;-72
2023/03/10 03:46:33;;;;;;;3.43;1.40;;;;;;;;;;5046760;28;20212;-73
2023/03/10 03:49:00;;;;;;;3.13;1.43;;;;;;;;;;5061929;28;20198;-73
2023/03/10 03:51:27;;;;;;;1.90;1.40;;;;;;;;;;5047217;28;20236;-73
2023/03/10 03:53:53;;;;;;;2.70;1.30;;;;;;;;;;5062728;28;20201;-73
2023/03/10 03:56:20;;;;;;;3.60;1.90;;;;;;;;;;5047054;28;20177;-73
2023/03/10 03:58:47;;;;;;;3.07;1.57;;;;;;;;;;5061213;28;20196;-73
2023/03/10 04:01:14;;;;;;;2.47;1.60;;;;;;;;;;5041641;28;21343;-73
2023/03/10 04:03:45;;;;;;;5.00;2.13;;;;;;;;;;5060036;28;20628;-72
2023/03/10 04:06:15;;;;;;;4.20;2.13;;;;;;;;;;5046653;28;20354;-72
2023/03/10 04:08:42;;;;;;;3.63;1.50;;;;;;;;;;5029547;28;20190;-73
2023/03/10 04:11:08;;;;;;;2.87;1.60;;;;;;;;;;5046933;28;20919;-73
2023/03/10 04:13:36;;;;;;;2.87;1.60;;;;;;;;;;5048845;28;20212;-72
2023/03/10 04:16:04;;;;;;;3.07;1.53;;;;;;;;;;5048943;28;20174;-73
2023/03/10 04:18:34;;;;;;;2.60;1.50;;;;;;;;;;5048407;28;20190;-73
2023/03/10 04:21:01;;;;;;;4.50;1.83;;;;;;;;;;5047706;28;20205;-73
2023/03/10 04:23:27;;;;;;;2.97;1.37;;;;;;;;;;5046880;28;20285;-72
2023/03/10 04:25:53;;;;;;;4.90;2.90;;;;;;;;;;5046460;28;20198;-72
2023/03/10 04:28:20;;;;;;;2.70;1.90;;;;;;;;;;5046515;28;20189;-73
2023/03/10 04:30:48;;;;;;;2.40;1.47;;;;;;;;;;5049247;28;20260;-72
2023/03/10 04:33:16;;;;;;;1.63;1.13;;;;;;;;;;5047039;28;20194;-73
2023/03/10 04:35:47;;;;;;;2.63;1.40;;;;;;;;;;5044635;28;20244;-72
2023/03/10 04:38:14;;;;;;;2.10;1.60;;;;;;;;;;5046462;28;20297;-72
2023/03/10 04:40:40;;;;;;;2.97;1.70;;;;;;;;;;5048681;28;20225;-73
2023/03/10 04:43:07;;;;;;;2.50;1.40;;;;;;;;;;5043867;28;20201;-72
2023/03/10 04:45:33;;;;;;;1.97;1.33;;;;;;;;;;5043044;28;20186;-73
2023/03/10 04:47:59;;;;;;;2.17;1.43;;;;;;;;;;5046944;28;20569;-73
2023/03/10 04:50:25;;;;;;;2.83;1.27;;;;;;;;;;5048237;28;20221;-72
2023/03/10 04:52:53;;;;;;;2.47;1.50;;;;;;;;;;5043342;28;20254;-73
2023/03/10 04:55:23;;;;;;;3.53;1.37;;;;;;;;;;5043872;28;20174;-73
2023/03/10 04:57:49;;;;;;;2.47;1.50;;;;;;;;;;5043310;28;20201;-72
2023/03/10 05:00:16;;;;;;;5.07;2.53;;;;;;;;;;5044945;28;20217;-72
2023/03/10 05:02:43;;;;;;;3.30;1.57;;;;;;;;;;5046552;28;20725;-72
2023/03/10 05:05:09;;;;;;;3.03;1.50;;;;;;;;;;5042170;28;20186;-72
2023/03/10 05:07:38;;;;;;;2.63;1.83;;;;;;;;;;5043510;28;20182;-72
2023/03/10 05:10:05;;;;;;;4.20;1.73;;;;;;;;;;5042189;28;20201;-72
2023/03/10 05:12:32;;;;;;;2.97;1.83;;;;;;;;;;5047521;28;20210;-72
2023/03/10 05:14:58;;;;;;;7.77;2.40;;;;;;;;;;5043750;28;20214;-73
2023/03/10 05:17:27;;;;;;;4.90;1.97;;;;;;;;;;5043947;28;20185;-72
2023/03/10 05:19:54;;;;;;;4.27;2.03;;;;;;;;;;5060258;28;20211;-73
2023/03/10 05:22:20;;;;;;;5.20;2.10;;;;;;;;;;5043342;28;20989;-73
2023/03/10 05:24:47;;;;;;;3.57;2.07;;;;;;;;;;5042422;28;20182;-73
2023/03/10 05:27:17;;;;;;;2.93;1.70;;;;;;;;;;5060929;28;20186;-72
2023/03/10 05:29:43;;;;;;;4.60;2.10;;;;;;;;;;5057000;28;20197;-72
2023/03/10 05:32:18;;;;;;;4.17;1.87;;;;;;;;;;5043453;28;20205;-73
2023/03/10 05:34:46;;;;;;;2.13;1.60;;;;;;;;;;5042149;28;20678;-72
2023/03/10 05:37:12;;;;;;;2.93;1.50;;;;;;;;;;5045857;28;20202;-72
2023/03/10 05:39:39;;;;;;;3.83;1.40;;;;;;;;;;5045882;28;20220;-73
2023/03/10 05:42:11;;;;;;;2.77;1.40;;;;;;;;;;5042328;28;20194;-73
2023/03/10 05:44:39;;;;;;;2.77;1.40;;;;;;;;;;5043348;28;20551;-73
2023/03/10 05:47:06;;;;;;;2.53;1.37;;;;;;;;;;5044697;28;20281;-73
2023/03/10 05:49:32;;;;;;;3.20;1.40;;;;;;;;;;5031433;28;20634;-73
2023/03/10 05:51:59;;;;;;;2.40;1.23;;;;;;;;;;5044464;28;20293;-72
2023/03/10 05:54:25;;;;;;;4.07;1.57;;;;;;;;;;5041612;28;20186;-74
2023/03/10 05:56:51;;;;;;;3.10;1.20;;;;;;;;;;5047454;28;20269;-73
2023/03/10 05:59:20;;;;;;;2.63;1.27;;;;;;;;;;5040841;28;20213;-73
2023/03/10 06:01:47;;;;;;;2.57;1.43;;;;;;;;;;5042970;28;20186;-73
2023/03/10 06:04:14;;;;;;;3.20;1.30;;;;;;;;;;5046524;28;20723;-72
2023/03/10 06:06:40;;;;;;;2.33;1.27;;;;;;;;;;5043868;28;20181;-73
2023/03/10 06:09:06;;;;;;;2.40;1.50;;;;;;;;;;5039663;28;20215;-72
2023/03/10 06:11:32;;;;;;;2.77;1.30;;;;;;;;;;5046757;28;20216;-73
2023/03/10 06:13:59;;;;;;;3.40;1.70;;;;;;;;;;5043261;28;20201;-73
2023/03/10 06:16:25;;;;;;;3.40;1.60;;;;;;;;;;5047771;28;20914;-73
2023/03/10 06:18:55;;;;;;;4.17;1.93;;;;;;;;;;5043960;28;20235;-73
2023/03/10 06:21:22;;;;;;;3.73;1.50;;;;;;;;;;5047611;28;20186;-73
2023/03/10 06:23:48;;;;;;;3.73;1.30;;;;;;;;;;5043804;28;20200;-73
2023/03/10 06:26:15;;;;;;;3.67;1.40;;;;;;;;;;5048283;28;20181;-73
2023/03/10 06:28:42;;;;;;;3.13;1.50;;;;;;;;;;5047226;28;20660;-74
2023/03/10 06:31:12;;;;;;;3.40;1.40;;;;;;;;;;5048867;28;20182;-73
2023/03/10 06:33:38;;;;;;;2.03;1.30;;;;;;;;;;5042273;28;20197;-73
2023/03/10 06:36:04;;;;;;;1.87;1.20;;;;;;;;;;5047200;28;20193;-74
2023/03/10 06:38:31;;;;;;;2.20;1.20;;;;;;;;;;5046804;28;20612;-73
2023/03/10 06:40:57;;;;;;;4.23;1.53;;;;;;;;;;5045290;28;20689;-74
2023/03/10 06:43:23;;;;;;;3.90;1.77;;;;;;;;;;5047669;28;20258;-74
2023/03/10 06:45:50;;;;;;;3.10;1.50;;;;;;;;;;5047588;28;20522;-75
2023/03/10 06:48:16;;;;;;;3.67;1.40;;;;;;;;;;5051161;28;20178;-74
2023/03/10 06:50:47;;;;;;;2.97;1.20;;;;;;;;;;5049238;28;20228;-74
2023/03/10 06:53:13;;;;;;;3.00;1.57;;;;;;;;;;5035340;28;20581;-74
2023/03/10 06:55:40;;;;;;;3.30;1.57;;;;;;;;;;5047793;28;20188;-76
2023/03/10 06:58:06;;;;;;;2.47;1.40;;;;;;;;;;5044803;28;20327;-74
2023/03/10 07:00:32;;;;;;;3.50;1.47;;;;;;;;;;5051173;28;20534;-74
2023/03/10 07:02:58;;;;;;;4.27;1.40;;;;;;;;;;5042734;28;20244;-73
2023/03/10 07:05:26;;;;;;;4.40;1.37;;;;;;;;;;5046580;28;20170;-74
2023/03/10 07:07:53;;;;;;;2.50;1.30;;;;;;;;;;5037245;28;20661;-74
2023/03/10 07:10:19;;;;;;;3.20;1.43;;;;;;;;;;5044243;28;20190;-73
2023/03/10 07:12:47;;;;;;;3.50;1.30;;;;;;;;;;5025105;28;20216;-73
2023/03/10 07:15:13;;;;;;;4.80;1.50;;;;;;;;;;5031488;28;20170;-73
2023/03/10 07:17:40;;;;;;;3.73;1.40;;;;;;;;;;5041703;28;20226;-73
2023/03/10 07:20:06;;;;;;;2.93;1.40;;;;;;;;;;5058603;28;20207;-73
2023/03/10 07:22:32;;;;;;;3.20;1.60;;;;;;;;;;5029479;28;20248;-73
2023/03/10 07:24:58;;;;;;;3.87;1.63;;;;;;;;;;5045434;28;20268;-73
2023/03/10 07:27:24;;;;;;;4.87;1.60;;;;;;;;;;5041118;28;20178;-73
2023/03/10 07:29:50;;;;;;;3.47;1.57;;;;;;;;;;5034535;28;20197;-74
2023/03/10 07:32:17;;;;;;;4.47;1.70;;;;;;;;;;5052013;28;20217;-73
2023/03/10 07:34:43;;;;;;;4.90;1.53;;;;;;;;;;5041702;28;20232;-73
2023/03/10 07:37:09;;;;;;;4.17;1.57;;;;;;;;;;5062778;28;20591;-74
2023/03/10 07:39:35;;;;;;;4.93;1.90;;;;;;;;;;5046615;28;20202;-75
2023/03/10 07:42:01;;;;;;;3.27;1.63;;;;;;;;;;5041746;28;20521;-73
2023/03/10 07:44:29;;;;;;;3.60;1.50;;;;;;;;;;5034743;28;20668;-73
2023/03/10 07:46:55;;;;;;;5.00;1.60;;;;;;;;;;5047794;28;20296;-73
2023/03/10 07:49:21;;;;;;;2.80;1.50;;;;;;;;;;5050265;28;20658;-73
2023/03/10 07:51:47;;;;;;;4.57;1.60;;;;;;;;;;5048612;28;20216;-73
2023/03/10 07:54:13;;;;;;;5.87;2.00;;;;;;;;;;5045918;28;20229;-73
2023/03/10 07:56:39;;;;;;;5.60;1.73;;;;;;;;;;5047269;28;20186;-74
2023/03/10 07:59:05;;;;;;;3.83;1.70;;;;;;;;;;5029741;28;20186;-73
2023/03/10 08:01:32;;;;;;;6.20;1.90;;;;;;;;;;5048052;28;20178;-73
2023/03/10 08:03:58;;;;;;;6.50;1.90;;;;;;;;;;5043135;28;20202;-74
2023/03/10 08:06:26;;;;;;;4.13;1.80;;;;;;;;;;5046256;28;20209;-73
2023/03/10 08:08:52;;;;;;;3.33;1.73;;;;;;;;;;5049891;28;20248;-73
2023/03/10 08:11:19;;;;;;;3.73;1.60;;;;;;;;;;5044358;28;20193;-72
2023/03/10 08:13:46;;;;;;;4.00;1.70;;;;;;;;;;5047379;28;20267;-73
2023/03/10 08:16:13;;;;;;;4.40;1.80;;;;;;;;;;5046043;28;20612;-74
2023/03/10 08:18:40;;;;;;;4.70;1.70;;;;;;;;;;5031568;28;20191;-74
2023/03/10 08:21:06;;;;;;;4.67;1.70;;;;;;;;;;5048064;28;20201;-73
2023/03/10 08:23:33;;;;;;;4.77;2.20;;;;;;;;;;5044596;28;20271;-74
2023/03/10 08:26:00;;;;;;;5.70;2.00;;;;;;;;;;5048814;28;20210;-74
2023/03/10 08:28:28;;;;;;;5.93;2.10;;;;;;;;;;5038846;28;20181;-74
2023/03/10 08:30:55;;;;;;;7.60;2.27;;;;;;;;;;5041774;28;20217;-73
2023/03/10 08:33:21;;;;;;;6.93;2.17;;;;;;;;;;5051110;28;20251;-72
2023/03/10 08:35:47;;;;;;;6.67;1.87;;;;;;;;;;5048563;28;20554;-73
2023/03/10 08:38:13;;;;;;;4.47;1.63;;;;;;;;;;5047929;28;20193;-73
2023/03/10 08:40:39;;;;;;;4.23;1.60;;;;;;;;;;5049735;28;20198;-74
2023/03/10 08:43:05;;;;;;;5.73;1.50;;;;;;;;;;5041924;28;20701;-74
2023/03/10 08:45:32;;;;;;;3.50;1.17;;;;;;;;;;5047785;28;20218;-74
2023/03/10 08:47:58;;;;;;;3.83;1.43;;;;;;;;;;5040698;28;20201;-74
2023/03/10 08:50:24;;;;;;;5.20;1.27;;;;;;;;;;5019979;28;20590;-74
2023/03/10 08:52:50;;;;;;;5.27;1.60;;;;;;;;;;5042947;28;20225;-73
2023/03/10 08:55:16;;;;;;;4.63;1.50;;;;;;;;;;5049964;28;20243;-73
2023/03/10 08:57:42;;;;;;;3.80;1.40;;;;;;;;;;5050967;28;20596;-74
2023/03/10 09:00:11;;;;;;;2.87;1.20;;;;;;;;;;5039984;28;20574;-74
2023/03/10 09:02:38;;;;;;;5.20;1.20;;;;;;;;;;5038679;28;20226;-73
2023/03/10 09:05:05;;;;;;;3.23;1.20;;;;;;;;;;5047736;28;20186;-73
2023/03/10 09:07:31;;;;;;;4.80;1.57;;;;;;;;;;5045543;28;20182;-73
2023/03/10 09:09:58;;;;;;;4.20;1.37;;;;;;;;;;5045466;28;20778;-73
2023/03/10 09:12:24;;;;;;;4.60;1.47;;;;;;;;;;5047834;28;20198;-74
2023/03/10 09:14:50;;;;;;;3.50;1.50;;;;;;;;;;5047385;28;20699;-74
2023/03/10 09:17:16;;;;;;;4.97;1.93;;;;;;;;;;5047665;28;20232;-74
2023/03/10 09:19:42;;;;;;;4.07;1.43;;;;;;;;;;5049436;28;20213;-74
2023/03/10 09:22:09;;;;;;;2.17;1.30;;;;;;;;;;5046038;28;20203;-73
2023/03/10 09:24:35;;;;;;;3.07;1.27;;;;;;;;;;5041807;28;20186;-74
2023/03/10 09:27:01;;;;;;;4.63;1.23;;;;;;;;;;5049310;28;20532;-74
2023/03/10 09:29:27;;;;;;;4.47;1.63;;;;;;;;;;5064483;28;20615;-74
2023/03/10 09:31:54;;;;;;;2.53;1.20;;;;;;;;;;5040897;28;20181;-73
2023/03/10 09:34:20;;;;;;;3.47;1.17;;;;;;;;;;5044514;28;20588;-73
2023/03/10 09:36:46;;;;;;;4.23;1.33;;;;;;;;;;5047742;28;20251;-73
2023/03/10 09:39:12;;;;;;;4.30;1.43;;;;;;;;;;5053678;28;20186;-73
2023/03/10 09:41:44;;;;;;;5.57;1.50;;;;;;;;;;5063741;28;20558;-73
2023/03/10 09:44:16;;;;;;;4.43;1.30;;;;;;;;;;5035245;28;20232;-73
2023/03/10 09:46:42;;;;;;;2.60;1.10;;;;;;;;;;5044319;28;20562;-73
2023/03/10 09:49:15;;;;;;;2.80;1.10;;;;;;;;;;5048436;28;20281;-73
2023/03/10 09:51:44;;;;;;;2.10;1.07;;;;;;;;;;5048939;28;20285;-74
2023/03/10 09:54:22;;;;;;;3.47;1.30;;;;;;;;;;5047853;28;20205;-74
2023/03/10 09:56:48;;;;;;;2.70;1.10;;;;;;;;;;5046331;28;20182;-74
2023/03/10 09:59:20;;;;;;;4.60;1.60;;;;;;;;;;5048948;28;20598;-74
2023/03/10 10:01:48;;;;;;;4.40;1.07;;;;;;;;;;5042068;28;20205;-74
2023/03/10 10:04:16;;;;;;;3.30;1.20;;;;;;;;;;5059610;28;20208;-74
2023/03/10 10:06:44;;;;;;;3.63;1.20;;;;;;;;;;5048424;28;20700;-74
2023/03/10 10:09:26;;;;;;;3.40;1.17;;;;;;;;;;5048482;28;20177;-74
2023/03/10 10:11:53;;;;;;;5.57;1.27;;;;;;;;;;5047177;28;20181;-73
2023/03/10 10:14:20;;;;;;;3.13;1.13;;;;;;;;;;5043353;28;20201;-73
2023/03/10 10:17:05;;;;;;;5.53;1.30;;;;;;;;;;5046194;28;20170;-73
2023/03/10 10:19:32;;;;;;;4.47;1.43;;;;;;;;;;5038546;28;20209;-73
2023/03/10 10:21:58;;;;;;;7.07;1.30;;;;;;;;;;5043500;28;20293;-74
2023/03/10 10:24:24;;;;;;;4.30;1.43;;;;;;;;;;5047932;28;20243;-73
2023/03/10 10:26:50;;;;;;;4.20;1.33;;;;;;;;;;5044712;28;20202;-73
2023/03/10 10:29:24;;;;;;;4.17;1.40;;;;;;;;;;5046437;28;20186;-74
2023/03/10 10:32:09;;;;;;;5.03;1.50;;;;;;;;;;5048362;28;20186;-73
2023/03/10 10:34:36;;;;;;;5.87;1.50;;;;;;;;;;5048793;28;20177;-74
2023/03/10 10:37:02;;;;;;;4.70;1.40;;;;;;;;;;5047651;28;20262;-73
2023/03/10 10:39:31;;;;;;;5.57;1.70;;;;;;;;;;5037684;28;20198;-73
2023/03/10 10:42:16;;;;;;;4.97;1.60;;;;;;;;;;5046336;28;20248;-73
2023/03/10 10:44:43;;;;;;;4.50;1.50;;;;;;;;;;5045184;28;20178;-73
2023/03/10 10:47:33;;;;;;;5.23;1.43;;;;;;;;;;5046912;28;20252;-74
2023/03/10 10:50:28;;;;;;;3.93;1.37;;;;;;;;;;5044234;28;20568;-73
2023/03/10 10:53:15;;;;;;;5.23;1.50;;;;;;;;;;5030445;28;20225;-73
2023/03/10 10:55:42;;;;;;;6.00;1.60;;;;;;;;;;5045716;28;20797;-73
2023/03/10 10:58:29;;;;;;;6.83;1.97;;;;;;;;;;5044798;28;20197;-72
2023/03/10 11:01:00;;;;;;;4.47;1.77;;;;;;;;;;5044784;28;20262;-72
2023/03/10 11:03:28;;;;;;;4.90;1.40;;;;;;;;;;5042328;28;20197;-73
2023/03/10 11:05:54;;;;;;;6.90;1.57;;;;;;;;;;5049878;28;20182;-74
2023/03/10 11:08:27;;;;;;;4.10;1.80;;;;;;;;;;5048021;28;20177;-73
2023/03/10 11:10:56;;;;;;;6.37;1.80;;;;;;;;;;5048377;28;20189;-74
2023/03/10 11:13:38;;;;;;;3.80;1.53;;;;;;;;;;5044055;28;20206;-73
2023/03/10 11:16:04;;;;;;;5.30;1.87;;;;;;;;;;5048456;28;20280;-74
2023/03/10 11:18:34;;;;;;;3.83;1.50;;;;;;;;;;5036563;28;20265;-73
2023/03/10 11:21:06;;;;;;;4.83;1.80;;;;;;;;;;5052387;28;20206;-72
2023/03/10 11:23:48;;;;;;;4.20;1.60;;;;;;;;;;5045974;28;20202;-73
2023/03/10 11:26:33;;;;;;;6.20;2.00;;;;;;;;;;5050859;28;20197;-74
2023/03/10 11:29:04;;;;;;;4.50;1.57;;;;;;;;;;5043072;28;20190;-74
2023/03/10 11:31:33;;;;;;;4.97;1.70;;;;;;;;;;5051999;28;20181;-73
2023/03/10 11:34:09;;;;;;;4.57;1.40;;;;;;;;;;5047338;28;20221;-73
2023/03/10 11:36:54;;;;;;;4.30;1.70;;;;;;;;;;5048620;28;20181;-73
2023/03/10 11:39:20;;;;;;;5.30;1.70;;;;;;;;;;5042805;28;20190;-72
2023/03/10 11:41:49;;;;;;;4.73;1.80;;;;;;;;;;5046479;28;20182;-74
2023/03/10 11:44:31;;;;;;;5.77;1.90;;;;;;;;;;5033119;28;20671;-74
2023/03/10 11:47:03;;;;;;;3.27;1.57;;;;;;;;;;5047552;28;20182;-73
2023/03/10 11:49:36;;;;;;;3.63;1.47;;;;;;;;;;5049640;28;20195;-75
2023/03/10 11:52:13;;;;;;;2.73;1.60;;;;;;;;;;5045342;28;20251;-72
2023/03/10 11:54:47;;;;;;;4.67;1.60;;;;;;;;;;5051843;28;20307;-74
2023/03/10 11:57:16;;;;;;;4.20;1.43;;;;;;;;;;5048400;28;20225;-73
2023/03/10 11:59:54;;;;;;;1.97;1.10;;;;;;;;;;5046297;28;20202;-74
2023/03/10 12:02:29;;;;;;;2.63;1.17;;;;;;;;;;5064161;28;20201;-73
2023/03/10 12:05:02;;;;;;;4.33;1.27;;;;;;;;;;5033987;28;20636;-73
2023/03/10 12:07:49;;;;;;;3.47;1.30;;;;;;;;;;5049551;28;20525;-74
2023/03/10 12:10:17;;;;;;;3.50;1.43;;;;;;;;;;5044265;28;20562;-74
2023/03/10 12:12:45;;;;;;;4.07;1.40;;;;;;;;;;5060606;28;20216;-74
2023/03/10 12:15:16;;;;;;;3.47;1.40;;;;;;;;;;5063268;28;20196;-74
2023/03/10 12:17:42;;;;;;;3.80;2.93;;;;;;;;;;5042552;28;20527;-74
2023/03/10 12:20:14;;;;;;;3.30;1.90;;;;;;;;;;5049214;28;20201;-74
2023/03/10 12:22:42;;;;;;;2.80;1.40;;;;;;;;;;5060164;28;20206;-74
2023/03/10 12:25:27;;;;;;;3.50;1.70;;;;;;;;;;5047337;28;20269;-74
2023/03/10 12:28:12;;;;;;;2.90;1.47;;;;;;;;;;5041213;28;20205;-74
2023/03/10 12:30:46;;;;;;;3.17;1.40;;;;;;;;;;5042549;28;20200;-73
2023/03/10 12:33:36;;;;;;;2.93;1.33;;;;;;;;;;5047018;28;20267;-74
2023/03/10 12:36:08;;;;;;;2.57;1.20;;;;;;;;;;5026641;28;20537;-74
2023/03/10 12:38:38;;;;;;;4.63;1.30;;;;;;;;;;5049047;28;20209;-74
2023/03/10 12:41:04;;;;;;;3.37;1.73;;;;;;;;;;5046683;28;20210;-73
2023/03/10 12:43:42;;;;;;;3.07;1.93;;;;;;;;;;5047316;28;20198;-74
2023/03/10 12:46:11;;;;;;;4.70;2.40;;;;;;;;;;5047867;28;20641;-73
2023/03/10 12:48:43;;;;;;;5.80;2.30;;;;;;;;;;5045744;28;20687;-74
2023/03/10 12:51:18;;;;;;;3.50;2.10;;;;;;;;;;5046161;28;20208;-74
2023/03/10 12:53:56;;;;;;;4.17;1.87;;;;;;;;;;5052873;28;20205;-74
2023/03/10 12:56:39;;;;;;;2.53;1.33;;;;;;;;;;5048716;28;20587;-74
2023/03/10 12:59:10;;;;;;;2.50;1.60;;;;;;;;;;5049292;28;20190;-74
2023/03/10 13:01:44;;;;;;;3.70;2.07;;;;;;;;;;5046168;28;20613;-74
2023/03/10 13:04:12;;;;;;;3.97;1.50;;;;;;;;;;5047447;28;20632;-74
2023/03/10 13:06:40;;;;;;;2.50;1.33;;;;;;;;;;5045350;28;20193;-77
2023/03/10 13:09:20;;;;;;;1.47;1.00;;;;;;;;;;5038015;28;20182;-73
2023/03/10 13:11:56;;;;;;;2.27;1.30;;;;;;;;;;5048918;28;20647;-74
2023/03/10 13:14:23;;;;;;;2.17;1.20;;;;;;;;;;5049670;28;20324;-74
2023/03/10 13:17:00;;;;;;;1.27;0.90;;;;;;;;;;5046375;28;20189;-73
2023/03/10 13:19:33;;;;;;;3.00;1.20;;;;;;;;;;5041592;28;20186;-77
2023/03/10 13:21:59;;;;;;;2.07;1.10;;;;;;;;;;5048774;28;20204;-74
2023/03/10 13:24:27;;;;;;;3.13;1.20;;;;;;;;;;5045750;28;20186;-77
2023/03/10 13:27:11;;;;;;;1.60;1.10;;;;;;;;;;5049364;28;20182;-76
2023/03/10 13:29:37;;;;;;;2.23;1.20;;;;;;;;;;5043500;28;20186;-76
2023/03/10 13:32:04;;;;;;;3.80;1.10;;;;;;;;;;5047358;28;20194;-74
2023/03/10 13:34:32;;;;;;;1.53;1.00;;;;;;;;;;5036826;28;20262;-74
2023/03/10 13:37:02;;;;;;;4.50;3.80;;;;;;;;;;5048070;28;20371;-74
2023/03/10 13:39:28;;;;;;;1.83;1.17;;;;;;;;;;5050960;28;20531;-76
2023/03/10 13:41:56;;;;;;;1.33;1.00;;;;;;;;;;5049904;28;20178;-76
2023/03/10 13:44:32;;;;;;;2.30;1.17;;;;;;;;;;5051299;28;20256;-76
2023/03/10 13:47:03;;;;;;;2.43;1.10;;;;;;;;;;5039626;28;20173;-78
2023/03/10 13:49:34;;;;;;;1.17;1.00;;;;;;;;;;5048571;28;20665;-76
2023/03/10 13:52:02;;;;;;;2.30;0.93;;;;;;;;;;5045427;28;20200;-76
2023/03/10 13:54:38;;;;;;;1.30;0.83;;;;;;;;;;5049186;28;20243;-76
2023/03/10 13:57:07;;;;;;;2.30;1.00;;;;;;;;;;5045773;28;20722;-77
2023/03/10 13:59:34;;;;;;;1.40;1.10;;;;;;;;;;5047107;28;20214;-76
2023/03/10 14:02:01;;;;;;;1.33;0.90;;;;;;;;;;5064588;28;20243;-76
2023/03/10 14:04:42;;;;;;;1.80;1.20;;;;;;;;;;5050129;28;20182;-76
2023/03/10 14:07:15;;;;;;;1.50;1.10;;;;;;;;;;5039291;28;20189;-76
2023/03/10 14:09:42;;;;;;;1.77;1.00;;;;;;;;;;5038978;28;20201;-76
2023/03/10 14:12:28;;;;;;;1.03;0.80;;;;;;;;;;5047737;28;20189;-76
2023/03/10 14:14:54;;;;;;;0.93;0.80;;;;;;;;;;5048644;28;20182;-76
2023/03/10 14:17:30;;;;;;;1.27;0.90;;;;;;;;;;5048965;28;20186;-76
2023/03/10 14:19:57;;;;;;;1.80;0.90;;;;;;;;;;5047794;28;20201;-76
2023/03/10 14:22:30;;;;;;;2.20;1.00;;;;;;;;;;5046250;28;20201;-76
2023/03/10 14:24:58;;;;;;;1.50;1.00;;;;;;;;;;5048285;28;20189;-76
2023/03/10 14:27:24;;;;;;;0.77;0.73;;;;;;;;;;5044446;28;20192;-76
2023/03/10 14:29:52;;;;;;;0.80;0.80;;;;;;;;;;5044362;28;20306;-76
2023/03/10 14:32:19;;;;;;;1.07;0.80;;;;;;;;;;5048119;28;20189;-76
2023/03/10 14:34:45;;;;;;;0.80;0.80;;;;;;;;;;5043104;28;20273;-77
2023/03/10 14:37:12;;;;;;;1.37;0.80;;;;;;;;;;5048551;28;20178;-77
2023/03/10 14:39:38;;;;;;;0.70;0.70;;;;;;;;;;5031225;28;20216;-77
2023/03/10 14:42:04;;;;;;;1.60;0.97;;;;;;;;;;5046670;28;20177;-77
2023/03/10 14:44:31;;;;;;;0.90;0.70;;;;;;;;;;5047712;28;20197;-76
2023/03/10 14:46:57;;;;;;;0.70;0.70;;;;;;;;;;5045237;28;20559;-77
2023/03/10 14:49:25;;;;;;;0.77;0.70;;;;;;;;;;5049212;28;20647;-76
2023/03/10 14:51:51;;;;;;;0.60;0.60;;;;;;;;;;5046537;28;20185;-76
2023/03/10 14:54:21;;;;;;;0.50;0.50;;;;;;;;;;5047552;28;20205;-76